createdAt,value
2023-05-25T00:00:11.228Z,101453.16
2023-05-25T00:02:39.625Z,101465.03
2023-05-25T00:05:09.130Z,101457.16
2023-05-25T00:07:35.954Z,101461.59
2023-05-25T00:10:02.911Z,101462.41
2023-05-25T00:12:29.563Z,101466.44
2023-05-25T00:14:56.074Z,101462.59
2023-05-25T00:17:24.169Z,101465.84
2023-05-25T00:19:51.241Z,101466.03
2023-05-25T00:22:17.886Z,101465.44
2023-05-25T00:24:44.412Z,101469.69
2023-05-25T00:27:10.967Z,101468.84
2023-05-25T00:29:37.471Z,101462.19
2023-05-25T00:32:04.742Z,101471.69
2023-05-25T00:34:31.314Z,101470.47
2023-05-25T00:36:57.875Z,101474.50
2023-05-25T00:39:24.411Z,101468.25
2023-05-25T00:41:51.071Z,101475.91
2023-05-25T00:44:21.689Z,101475.13
2023-05-25T00:46:51.049Z,101481.97
2023-05-25T00:49:23.226Z,101473.09
2023-05-25T00:51:52.493Z,101473.09
2023-05-25T00:54:19.655Z,101476.50
2023-05-25T00:57:04.859Z,101475.53
2023-05-25T00:59:43.438Z,101474.69
2023-05-25T01:02:11.981Z,101474.69
2023-05-25T01:04:45.191Z,101468.84
2023-05-25T01:07:17.770Z,101469.66
2023-05-25T01:09:50.128Z,101468.03
2023-05-25T01:12:19.151Z,101469.88
2023-05-25T01:14:48.242Z,101480.16
2023-05-25T01:17:15.922Z,101481.97
2023-05-25T01:19:51.877Z,101477.53
2023-05-25T01:23:12.195Z,101481.97
2023-05-25T01:25:46.178Z,101474.31
2023-05-25T01:28:21.645Z,101474.50
2023-05-25T01:30:50.670Z,101468.66
2023-05-25T01:33:18.814Z,101466.03
2023-05-25T01:35:47.183Z,101476.94
2023-05-25T01:38:14.484Z,101474.50
2023-05-25T01:40:41.241Z,101471.69
2023-05-25T01:43:07.784Z,101473.69
2023-05-25T01:45:35.508Z,101475.28
2023-05-25T01:48:13.481Z,101481.34
2023-05-25T01:50:46.080Z,101477.13
2023-05-25T01:53:18.905Z,101476.53
2023-05-25T01:56:08.618Z,101473.91
2023-05-25T01:58:40.352Z,101473.91
2023-05-25T02:01:08.737Z,101474.09
2023-05-25T02:03:41.069Z,101473.28
2023-05-25T02:06:08.500Z,101472.88
2023-05-25T02:08:35.011Z,101475.50
2023-05-25T02:11:01.892Z,101478.13
2023-05-25T02:13:28.454Z,101477.34
2023-05-25T02:15:55.107Z,101473.09
2023-05-25T02:18:22.282Z,101478.72
2023-05-25T02:20:48.915Z,101480.16
2023-05-25T02:23:15.579Z,101485.97
2023-05-25T02:25:42.864Z,101485.81
2023-05-25T02:28:09.675Z,101485.59
2023-05-25T02:30:36.308Z,101481.13
2023-05-25T02:33:02.931Z,101489.63
2023-05-25T02:35:29.527Z,101482.56
2023-05-25T02:37:56.185Z,101489.63
2023-05-25T02:40:22.939Z,101492.63
2023-05-25T02:42:49.487Z,101493.66
2023-05-25T02:45:16.116Z,101491.81
2023-05-25T02:47:42.660Z,101487.41
2023-05-25T02:50:09.685Z,101489.63
2023-05-25T02:52:36.336Z,101487.81
2023-05-25T02:55:03.526Z,101503.31
2023-05-25T02:57:30.287Z,101492.63
2023-05-25T02:59:56.964Z,101495.66
2023-05-25T03:02:25.603Z,101494.66
2023-05-25T03:04:53.911Z,101494.25
2023-05-25T03:07:21.422Z,101499.09
2023-05-25T03:09:47.975Z,101486.41
2023-05-25T03:12:14.588Z,101494.88
2023-05-25T03:14:41.142Z,101494.47
2023-05-25T03:17:07.686Z,101495.84
2023-05-25T03:19:34.231Z,101494.44
2023-05-25T03:22:02.047Z,101503.13
2023-05-25T03:24:28.889Z,101504.31
2023-05-25T03:26:55.568Z,101513.78
2023-05-25T03:29:22.062Z,101506.75
2023-05-25T03:31:48.591Z,101515.03
2023-05-25T03:34:15.213Z,101511.59
2023-05-25T03:36:46.023Z,101509.19
2023-05-25T03:39:12.602Z,101515.03
2023-05-25T03:41:39.985Z,101515.44
2023-05-25T03:44:06.560Z,101511.38
2023-05-25T03:46:33.089Z,101512.81
2023-05-25T03:48:59.892Z,101513.41
2023-05-25T03:51:27.969Z,101518.84
2023-05-25T03:53:54.505Z,101516.84
2023-05-25T03:56:21.379Z,101519.44
2023-05-25T03:58:47.892Z,101525.09
2023-05-25T04:01:14.870Z,101530.13
2023-05-25T04:03:41.550Z,101532.34
2023-05-25T04:06:08.844Z,101521.22
2023-05-25T04:08:35.447Z,101525.88
2023-05-25T04:11:02.228Z,101532.13
2023-05-25T04:13:28.810Z,101534.13
2023-05-25T04:15:55.770Z,101534.50
2023-05-25T04:18:22.380Z,101533.94
2023-05-25T04:20:49.394Z,101534.28
2023-05-25T04:23:15.978Z,101534.25
2023-05-25T04:25:42.655Z,101532.75
2023-05-25T04:28:09.171Z,101531.50
2023-05-25T04:30:36.251Z,101528.25
2023-05-25T04:33:03.219Z,101534.25
2023-05-25T04:35:31.599Z,101530.63
2023-05-25T04:38:00.627Z,101532.25
2023-05-25T04:40:28.062Z,101535.66
2023-05-25T04:42:55.907Z,101532.94
2023-05-25T04:45:23.992Z,101522.41
2023-05-25T04:47:51.011Z,101525.91
2023-05-25T04:50:17.835Z,101517.66
2023-05-25T04:52:44.478Z,101528.66
2023-05-25T04:55:11.032Z,101524.81
2023-05-25T04:57:37.582Z,101520.72
2023-05-25T05:00:05.985Z,101524.88
2023-05-25T05:02:32.537Z,101527.66
2023-05-25T05:04:59.128Z,101533.22
2023-05-25T05:07:25.772Z,101528.09
2023-05-25T05:09:52.261Z,101537.34
2023-05-25T05:12:18.956Z,101541.91
2023-05-25T05:14:45.619Z,101532.63
2023-05-25T05:17:12.847Z,101536.28
2023-05-25T05:19:39.365Z,101527.38
2023-05-25T05:22:06.008Z,101527.03
2023-05-25T05:24:32.623Z,101532.09
2023-05-25T05:26:59.512Z,101529.63
2023-05-25T05:29:28.204Z,101535.19
2023-05-25T05:31:57.687Z,101531.69
2023-05-25T05:34:24.331Z,101530.56
2023-05-25T05:36:57.915Z,101532.03
2023-05-25T05:39:26.082Z,101523.84
2023-05-25T05:41:53.130Z,101525.38
2023-05-25T05:44:24.630Z,101520.00
2023-05-25T05:46:52.959Z,101523.09
2023-05-25T05:49:19.614Z,101522.19
2023-05-25T05:51:46.093Z,101527.59
2023-05-25T05:54:12.684Z,101525.09
2023-05-25T05:56:39.158Z,101523.47
2023-05-25T05:59:05.682Z,101513.88
2023-05-25T06:01:33.064Z,101520.34
2023-05-25T06:03:59.590Z,101512.91
2023-05-25T06:06:26.202Z,101513.16
2023-05-25T06:08:52.795Z,101519.25
2023-05-25T06:11:19.337Z,101520.22
2023-05-25T06:13:46.647Z,101520.38
2023-05-25T06:16:13.694Z,101522.47
2023-05-25T06:18:40.344Z,101523.09
2023-05-25T06:21:07.092Z,101523.88
2023-05-25T06:23:33.601Z,101526.84
2023-05-25T06:26:05.337Z,101524.69
2023-05-25T06:28:32.341Z,101527.59
2023-05-25T06:30:58.942Z,101535.25
2023-05-25T06:33:26.059Z,101536.09
2023-05-25T06:35:56.425Z,101536.41
2023-05-25T06:38:23.968Z,101542.97
2023-05-25T06:40:50.455Z,101548.06
2023-05-25T06:43:16.972Z,101548.34
2023-05-25T06:45:43.880Z,101545.09
2023-05-25T06:48:11.507Z,101548.91
2023-05-25T06:50:38.118Z,101541.34
2023-05-25T06:53:04.637Z,101550.06
2023-05-25T06:55:31.415Z,101547.47
2023-05-25T06:57:58.652Z,101537.31
2023-05-25T07:00:25.475Z,101553.81
2023-05-25T07:02:53.153Z,101560.31
2023-05-25T07:05:19.795Z,101555.47
2023-05-25T07:07:46.549Z,101540.50
2023-05-25T07:10:13.127Z,101546.97
2023-05-25T07:12:39.670Z,101541.59
2023-05-25T07:15:06.845Z,101539.69
2023-05-25T07:17:33.903Z,101536.38
2023-05-25T07:20:00.803Z,101541.22
2023-05-25T07:22:27.390Z,101537.84
2023-05-25T07:24:54.061Z,101541.47
2023-05-25T07:27:20.623Z,101547.88
2023-05-25T07:29:47.140Z,101538.75
2023-05-25T07:32:13.715Z,101544.19
2023-05-25T07:34:41.384Z,101539.59
2023-05-25T07:37:07.910Z,101545.94
2023-05-25T07:39:34.405Z,101548.38
2023-05-25T07:42:02.618Z,101547.66
2023-05-25T07:44:30.173Z,101558.19
2023-05-25T07:46:56.748Z,101554.00
2023-05-25T07:49:23.281Z,101559.13
2023-05-25T07:51:49.786Z,101553.69
2023-05-25T07:54:17.436Z,101560.63
2023-05-25T07:56:44.018Z,101552.84
2023-05-25T07:59:10.929Z,101562.31
2023-05-25T08:01:38.942Z,101566.50
2023-05-25T08:04:06.195Z,101551.16
2023-05-25T08:06:32.939Z,101556.91
2023-05-25T08:08:59.530Z,101558.84
2023-05-25T08:11:27.666Z,101565.69
2023-05-25T08:13:54.202Z,101562.97
2023-05-25T08:16:20.892Z,101563.78
2023-05-25T08:18:47.646Z,101560.38
2023-05-25T08:21:14.351Z,101567.09
2023-05-25T08:23:42.753Z,101577.03
2023-05-25T08:26:31.237Z,101564.34
2023-05-25T08:28:59.080Z,101554.72
2023-05-25T08:31:25.626Z,101564.06
2023-05-25T08:33:52.131Z,101553.56
2023-05-25T08:36:18.646Z,101566.56
2023-05-25T08:38:45.104Z,101554.63
2023-05-25T08:41:13.108Z,101553.44
2023-05-25T08:43:41.767Z,101557.84
2023-05-25T08:46:09.283Z,101561.09
2023-05-25T08:48:41.761Z,101559.69
2023-05-25T08:51:11.683Z,101563.16
2023-05-25T08:53:40.785Z,101569.16
2023-05-25T08:56:13.633Z,101563.88
2023-05-25T08:58:46.200Z,101560.03
2023-05-25T09:01:18.354Z,101551.13
2023-05-25T09:03:46.950Z,101559.69
2023-05-25T09:06:14.468Z,101561.75
2023-05-25T09:08:41.194Z,101554.56
2023-05-25T09:11:08.001Z,101568.53
2023-05-25T09:13:36.352Z,101562.13
2023-05-25T09:16:03.167Z,101561.94
2023-05-25T09:18:29.743Z,101552.63
2023-05-25T09:20:56.667Z,101552.88
2023-05-25T09:23:23.836Z,101562.66
2023-05-25T09:25:51.043Z,101574.91
2023-05-25T09:30:51.032Z,101569.75
2023-05-25T09:33:17.758Z,101562.44
2023-05-25T09:35:45.897Z,101564.16
2023-05-25T09:38:17.433Z,101567.06
2023-05-25T09:40:44.868Z,101568.31
2023-05-25T09:43:17.290Z,101569.09
2023-05-25T09:45:49.095Z,101575.19
2023-05-25T09:48:15.941Z,101579.00
2023-05-25T09:50:43.335Z,101577.75
2023-05-25T09:53:11.215Z,101568.69
2023-05-25T09:55:52.075Z,101574.97
2023-05-25T09:58:26.485Z,101566.09
2023-05-25T10:00:54.788Z,101579.66
2023-05-25T10:03:21.837Z,101573.44
2023-05-25T10:05:49.055Z,101574.63
2023-05-25T10:08:20.120Z,101567.19
2023-05-25T10:10:49.941Z,101577.84
2023-05-25T10:13:20.845Z,101574.69
2023-05-25T10:15:49.074Z,101570.16
2023-05-25T10:18:16.815Z,101569.09
2023-05-25T10:20:46.119Z,101579.47
2023-05-25T10:23:18.519Z,101568.28
2023-05-25T10:25:46.961Z,101577.88
2023-05-25T10:28:16.596Z,101576.81
2023-05-25T10:30:43.667Z,101576.28
2023-05-25T10:33:10.682Z,101580.00
2023-05-25T10:35:56.231Z,101580.50
2023-05-25T10:38:29.179Z,101579.97
2023-05-25T10:40:56.265Z,101579.16
2023-05-25T10:43:23.773Z,101581.97
2023-05-25T10:45:50.325Z,101575.03
2023-05-25T10:48:16.879Z,101575.84
2023-05-25T10:50:50.566Z,101579.03
2023-05-25T10:53:17.408Z,101572.88
2023-05-25T10:55:52.875Z,101589.63
2023-05-25T10:58:21.314Z,101583.50
2023-05-25T11:01:12.125Z,101580.88
2023-05-25T11:03:45.197Z,101575.03
2023-05-25T11:06:12.419Z,101579.84
2023-05-25T11:09:23.129Z,101586.44
2023-05-25T11:11:50.763Z,101577.63
2023-05-25T11:14:30.291Z,101575.03
2023-05-25T11:17:14.798Z,101569.78
2023-05-25T11:19:56.421Z,101574.03
2023-05-25T11:22:37.444Z,101575.44
2023-05-25T11:25:37.938Z,101563.38
2023-05-25T11:28:06.449Z,101573.69
2023-05-25T11:30:33.580Z,101562.69
2023-05-25T11:33:04.148Z,101563.94
2023-05-25T11:35:37.123Z,101567.31
2023-05-25T11:38:08.058Z,101561.44
2023-05-25T11:40:35.910Z,101557.91
2023-05-25T11:43:04.866Z,101556.44
2023-05-25T11:45:34.557Z,101555.50
2023-05-25T11:48:01.263Z,101549.38
2023-05-25T11:50:28.374Z,101551.31
2023-05-25T11:52:55.210Z,101557.84
2023-05-25T11:55:21.896Z,101549.03
2023-05-25T11:57:55.786Z,101546.72
2023-05-25T12:00:27.567Z,101562.03
2023-05-25T12:02:54.871Z,101551.56
2023-05-25T12:05:23.155Z,101556.50
2023-05-25T12:07:50.204Z,101553.91
2023-05-25T12:10:17.176Z,101549.03
2023-05-25T12:12:45.396Z,101546.59
2023-05-25T12:15:22.640Z,101548.09
2023-05-25T12:17:50.537Z,101544.53
2023-05-25T12:20:18.179Z,101551.19
2023-05-25T12:22:46.191Z,101554.19
2023-05-25T12:25:16.059Z,101547.03
2023-05-25T12:27:43.811Z,101544.13
2023-05-25T12:30:11.380Z,101539.91
2023-05-25T12:32:54.759Z,101538.75
2023-05-25T12:35:21.587Z,101537.22
2023-05-25T12:37:48.125Z,101543.19
2023-05-25T12:40:21.113Z,101527.81
2023-05-25T12:42:56.791Z,101525.75
2023-05-25T12:45:24.102Z,101530.59
2023-05-25T12:47:51.135Z,101537.03
2023-05-25T12:50:18.744Z,101531.53
2023-05-25T12:52:46.764Z,101535.19
2023-05-25T12:55:27.268Z,101525.03
2023-05-25T12:57:55.697Z,101514.06
2023-05-25T13:00:39.374Z,101512.44
2023-05-25T13:03:09.332Z,101508.72
2023-05-25T13:05:37.479Z,101507.19
2023-05-25T13:08:06.093Z,101515.03
2023-05-25T13:10:33.267Z,101517.53
2023-05-25T13:13:00.822Z,101512.22
2023-05-25T13:15:27.874Z,101517.00
2023-05-25T13:17:56.224Z,101504.75
2023-05-25T13:20:27.432Z,101506.59
2023-05-25T13:22:57.609Z,101504.19
2023-05-25T13:25:26.980Z,101504.16
2023-05-25T13:27:55.087Z,101499.66
2023-05-25T13:30:22.184Z,101495.75
2023-05-25T13:32:51.355Z,101489.69
2023-05-25T13:35:36.953Z,101492.13
2023-05-25T13:38:03.585Z,101492.34
2023-05-25T13:40:30.137Z,101496.84
2023-05-25T13:42:56.694Z,101502.09
2023-05-25T13:45:23.262Z,101499.19
2023-05-25T13:47:49.993Z,101492.81
2023-05-25T13:50:16.702Z,101490.16
2023-05-25T13:52:43.277Z,101489.66
2023-05-25T13:55:09.846Z,101479.81
2023-05-25T13:57:37.693Z,101483.56
2023-05-25T14:00:06.098Z,101473.47
2023-05-25T14:02:34.107Z,101466.56
2023-05-25T14:05:01.002Z,101465.50
2023-05-25T14:07:27.589Z,101473.50
2023-05-25T14:09:54.160Z,101464.47
2023-05-25T14:12:20.800Z,101460.72
2023-05-25T14:14:47.414Z,101464.47
2023-05-25T14:17:13.956Z,101472.19
2023-05-25T14:19:40.695Z,101459.41
2023-05-25T14:22:14.173Z,101463.66
2023-05-25T14:24:41.333Z,101465.50
2023-05-25T14:27:07.886Z,101468.16
2023-05-25T14:29:34.730Z,101459.16
2023-05-25T14:32:01.684Z,101462.84
2023-05-25T14:34:28.812Z,101466.06
2023-05-25T14:36:55.417Z,101451.16
2023-05-25T14:39:21.969Z,101450.91
2023-05-25T14:41:48.556Z,101447.44
2023-05-25T14:44:15.380Z,101445.31
2023-05-25T14:46:41.921Z,101440.25
2023-05-25T14:49:08.500Z,101445.56
2023-05-25T14:51:35.058Z,101437.06
2023-05-25T14:54:03.602Z,101450.09
2023-05-25T14:56:30.157Z,101442.34
2023-05-25T14:58:56.775Z,101450.06
2023-05-25T15:01:25.326Z,101448.97
2023-05-25T15:03:52.701Z,101445.03
2023-05-25T15:06:19.642Z,101438.91
2023-05-25T15:08:46.386Z,101439.97
2023-05-25T15:11:12.956Z,101430.91
2023-05-25T15:13:40.927Z,101434.63
2023-05-25T15:16:11.799Z,101437.28
2023-05-25T15:18:38.636Z,101434.34
2023-05-25T15:21:05.695Z,101420.75
2023-05-25T15:23:32.299Z,101418.03
2023-05-25T15:26:03.152Z,101428.69
2023-05-25T15:28:32.560Z,101426.28
2023-05-25T15:31:02.359Z,101429.78
2023-05-25T15:33:43.531Z,101425.50
2023-05-25T15:36:16.750Z,101418.56
2023-05-25T15:38:44.432Z,101420.13
2023-05-25T15:41:15.450Z,101415.88
2023-05-25T15:43:42.225Z,101416.44
2023-05-25T15:46:08.820Z,101410.81
2023-05-25T15:48:35.400Z,101409.50
2023-05-25T15:51:01.975Z,101417.22
2023-05-25T15:53:30.365Z,101411.63
2023-05-25T15:55:57.088Z,101410.81
2023-05-25T15:58:23.685Z,101406.22
2023-05-25T16:00:50.317Z,101407.78
2023-05-25T16:03:16.968Z,101407.56
2023-05-25T16:05:43.704Z,101405.47
2023-05-25T16:08:11.780Z,101412.13
2023-05-25T16:10:38.419Z,101405.22
2023-05-25T16:13:05.109Z,101401.22
2023-05-25T16:15:31.702Z,101400.19
2023-05-25T16:17:58.828Z,101407.63
2023-05-25T16:20:25.513Z,101403.63
2023-05-25T16:22:52.111Z,101408.44
2023-05-25T16:25:18.719Z,101407.31
2023-05-25T16:27:45.372Z,101404.63
2023-05-25T16:30:13.539Z,101403.53
2023-05-25T16:32:40.455Z,101395.25
2023-05-25T16:35:07.270Z,101396.06
2023-05-25T16:37:33.839Z,101398.47
2023-05-25T16:40:00.470Z,101396.06
2023-05-25T16:42:27.116Z,101390.03
2023-05-25T16:44:53.759Z,101394.06
2023-05-25T16:47:20.430Z,101390.09
2023-05-25T16:49:46.975Z,101386.91
2023-05-25T16:52:13.564Z,101391.44
2023-05-25T16:54:40.119Z,101395.72
2023-05-25T16:57:06.871Z,101396.28
2023-05-25T16:59:33.499Z,101404.25
2023-05-25T17:02:00.789Z,101390.13
2023-05-25T17:04:27.478Z,101397.59
2023-05-25T17:06:54.045Z,101390.41
2023-05-25T17:09:21.128Z,101392.53
2023-05-25T17:11:47.678Z,101382.75
2023-05-25T17:14:14.260Z,101394.44
2023-05-25T17:16:40.981Z,101393.13
2023-05-25T17:19:07.525Z,101393.63
2023-05-25T17:21:35.016Z,101390.69
2023-05-25T17:24:04.012Z,101394.69
2023-05-25T17:26:30.539Z,101398.44
2023-05-25T17:28:59.154Z,101390.19
2023-05-25T17:31:27.916Z,101394.16
2023-05-25T17:33:55.404Z,101405.31
2023-05-25T17:36:24.837Z,101400.75
2023-05-25T17:38:51.577Z,101402.84
2023-05-25T17:41:18.083Z,101402.16
2023-05-25T17:43:44.718Z,101399.00
2023-05-25T17:46:11.410Z,101396.63
2023-05-25T17:48:38.057Z,101398.78
2023-05-25T17:51:04.953Z,101396.22
2023-05-25T17:53:31.507Z,101397.38
2023-05-25T17:55:58.052Z,101395.72
2023-05-25T17:58:24.625Z,101397.00
2023-05-25T18:00:51.288Z,101391.91
2023-05-25T18:03:18.084Z,101395.06
2023-05-25T18:05:45.035Z,101396.22
2023-05-25T18:08:11.836Z,101401.69
2023-05-25T18:10:38.402Z,101403.72
2023-05-25T18:13:05.040Z,101405.84
2023-05-25T18:15:31.630Z,101410.19
2023-05-25T18:17:58.417Z,101404.81
2023-05-25T18:20:25.199Z,101403.13
2023-05-25T18:22:52.149Z,101410.88
2023-05-25T18:25:18.725Z,101420.25
2023-05-25T18:27:45.673Z,101415.22
2023-05-25T18:30:12.780Z,101429.81
2023-05-25T18:32:39.414Z,101427.41
2023-05-25T18:35:06.689Z,101424.59
2023-05-25T18:37:35.616Z,101432.72
2023-05-25T18:40:05.299Z,101430.56
2023-05-25T18:42:31.830Z,101435.28
2023-05-25T18:44:58.414Z,101438.19
2023-05-25T18:47:24.987Z,101437.81
2023-05-25T18:49:51.792Z,101436.16
2023-05-25T18:52:18.444Z,101435.84
2023-05-25T18:54:44.985Z,101440.03
2023-05-25T18:57:12.187Z,101437.56
2023-05-25T18:59:38.736Z,101436.78
2023-05-25T19:02:05.635Z,101445.53
2023-05-25T19:04:32.178Z,101442.63
2023-05-25T19:06:58.753Z,101452.13
2023-05-25T19:09:25.399Z,101459.28
2023-05-25T19:11:52.107Z,101456.13
2023-05-25T19:14:18.846Z,101453.25
2023-05-25T19:16:48.076Z,101457.09
2023-05-25T19:19:15.395Z,101459.53
2023-05-25T19:21:41.870Z,101468.84
2023-05-25T19:24:09.963Z,101474.00
2023-05-25T19:26:37.865Z,101474.16
2023-05-25T19:29:04.502Z,101474.72
2023-05-25T19:31:31.170Z,101485.28
2023-05-25T19:33:57.738Z,101482.06
2023-05-25T19:36:24.244Z,101489.06
2023-05-25T19:38:50.828Z,101484.69
2023-05-25T19:41:17.456Z,101499.41
2023-05-25T19:43:44.041Z,101494.59
2023-05-25T19:46:10.731Z,101487.81
2023-05-25T19:48:39.931Z,101492.94
2023-05-25T19:51:06.553Z,101496.47
2023-05-25T19:53:33.338Z,101497.41
2023-05-25T19:56:00.083Z,101497.28
2023-05-25T19:58:26.736Z,101497.19
2023-05-25T20:00:53.699Z,101500.28
2023-05-25T20:03:21.246Z,101502.75
2023-05-25T20:05:47.967Z,101502.09
2023-05-25T20:08:14.639Z,101501.28
2023-05-25T20:10:43.679Z,101514.56
2023-05-25T20:13:10.417Z,101511.00
2023-05-25T20:15:37.137Z,101516.59
2023-05-25T20:18:04.287Z,101518.06
2023-05-25T20:20:31.388Z,101517.13
2023-05-25T20:22:58.088Z,101524.09
2023-05-25T20:25:24.662Z,101529.22
2023-05-25T20:27:51.209Z,101524.63
2023-05-25T20:30:17.933Z,101522.47
2023-05-25T20:32:44.621Z,101519.22
2023-05-25T20:35:12.422Z,101522.53
2023-05-25T20:37:39.426Z,101526.41
2023-05-25T20:40:06.799Z,101524.69
2023-05-25T20:42:33.426Z,101521.28
2023-05-25T20:44:59.950Z,101528.03
2023-05-25T20:47:26.495Z,101527.28
2023-05-25T20:49:53.117Z,101527.81
2023-05-25T20:52:21.103Z,101534.16
2023-05-25T20:54:48.211Z,101537.69
2023-05-25T20:57:14.929Z,101537.75
2023-05-25T20:59:41.535Z,101534.75
2023-05-25T21:02:08.538Z,101537.38
2023-05-25T21:04:35.289Z,101535.41
2023-05-25T21:07:01.900Z,101533.22
2023-05-25T21:09:28.511Z,101544.59
2023-05-25T21:11:55.022Z,101544.00
2023-05-25T21:14:21.858Z,101548.31
2023-05-25T21:16:50.030Z,101550.22
2023-05-25T21:19:16.673Z,101555.09
2023-05-25T21:21:43.404Z,101555.31
2023-05-25T21:24:10.038Z,101560.56
2023-05-25T21:26:36.755Z,101556.09
2023-05-25T21:29:03.465Z,101572.47
2023-05-25T21:31:30.110Z,101567.59
2023-05-25T21:33:57.579Z,101568.41
2023-05-25T21:36:24.959Z,101559.69
2023-05-25T21:38:51.568Z,101561.16
2023-05-25T21:41:18.357Z,101555.91
2023-05-25T21:43:44.966Z,101571.69
2023-05-25T21:46:11.501Z,101570.94
2023-05-25T21:48:38.053Z,101569.16
2023-05-25T21:51:05.461Z,101574.25
2023-05-25T21:53:32.077Z,101570.25
2023-05-25T21:55:58.692Z,101586.03
2023-05-25T21:58:25.552Z,101569.84
2023-05-25T22:03:36.511Z,101580.22
2023-05-25T22:06:03.166Z,101580.47
2023-05-25T22:08:29.826Z,101578.50
2023-05-25T22:10:56.669Z,101581.72
2023-05-25T22:13:23.380Z,101583.97
2023-05-25T22:15:50.136Z,101578.16
2023-05-25T22:18:16.656Z,101574.31
2023-05-25T22:20:43.299Z,101585.25
2023-05-25T22:23:11.735Z,101592.53
2023-05-25T22:25:38.341Z,101595.22
2023-05-25T22:28:04.884Z,101584.72
2023-05-25T22:30:31.424Z,101584.75
2023-05-25T22:32:58.049Z,101582.16
2023-05-25T22:35:24.866Z,101594.09
2023-05-25T22:37:51.493Z,101593.69
2023-05-25T22:40:18.213Z,101588.25
2023-05-25T22:42:49.933Z,101593.34
2023-05-25T22:45:17.643Z,101593.97
2023-05-25T22:47:44.531Z,101605.88
2023-05-25T22:50:11.720Z,101605.28
2023-05-25T22:52:40.630Z,101603.50
2023-05-25T22:55:08.535Z,101601.28
2023-05-25T22:57:35.655Z,101610.38
2023-05-25T23:00:02.711Z,101613.63
2023-05-25T23:02:29.418Z,101609.19
2023-05-25T23:04:56.102Z,101605.56
2023-05-25T23:07:22.605Z,101610.44
2023-05-25T23:09:49.099Z,101611.41
2023-05-25T23:12:15.694Z,101607.97
2023-05-25T23:14:44.448Z,101613.41
2023-05-25T23:17:11.228Z,101613.00
2023-05-25T23:19:38.717Z,101619.50
2023-05-25T23:22:05.401Z,101619.88
2023-05-25T23:24:31.948Z,101623.94
2023-05-25T23:26:58.492Z,101628.56
2023-05-25T23:29:25.060Z,101629.56
2023-05-25T23:31:51.670Z,101629.16
2023-05-25T23:34:18.219Z,101626.34
2023-05-25T23:36:45.927Z,101625.13
2023-05-25T23:39:13.051Z,101626.53
2023-05-25T23:41:39.700Z,101619.28
2023-05-25T23:44:06.459Z,101620.47
2023-05-25T23:46:33.095Z,101634.19
2023-05-25T23:48:59.706Z,101622.50
2023-05-25T23:51:26.383Z,101629.16
2023-05-25T23:53:53.010Z,101628.97
2023-05-25T23:56:20.758Z,101622.91
2023-05-25T23:58:47.296Z,101625.72
